createdAt,value
2022-12-03T00:00:40.088Z,57.71
2022-12-03T00:01:40.082Z,58.75
2022-12-03T00:02:40.288Z,58.03
2022-12-03T00:03:40.282Z,58.03
2022-12-03T00:04:40.141Z,59.58
2022-12-03T00:05:48.208Z,59.69
2022-12-03T00:06:41.053Z,58.96
2022-12-03T00:07:40.077Z,58.65
2022-12-03T00:08:39.998Z,60.21
2022-12-03T00:09:39.989Z,60.10
2022-12-03T00:10:40.098Z,60.52
2022-12-03T00:11:39.966Z,60.41
2022-12-03T00:12:39.954Z,59.79
2022-12-03T00:13:39.942Z,60.00
2022-12-03T00:14:44.444Z,59.48
2022-12-03T00:15:39.971Z,60.72
2022-12-03T00:16:39.913Z,60.52
2022-12-03T00:17:39.904Z,59.89
2022-12-03T00:18:39.888Z,61.87
2022-12-03T00:19:39.878Z,60.31
2022-12-03T00:20:39.865Z,62.90
2022-12-03T00:21:39.859Z,62.59
2022-12-03T00:22:39.845Z,63.84
2022-12-03T00:23:42.288Z,63.53
2022-12-03T00:24:39.820Z,63.11
2022-12-03T00:25:39.814Z,63.21
2022-12-03T00:26:39.804Z,63.73
2022-12-03T00:27:39.788Z,63.53
2022-12-03T00:28:39.778Z,63.42
2022-12-03T00:29:39.769Z,62.70
2022-12-03T00:30:39.928Z,63.53
2022-12-03T00:31:39.836Z,63.01
2022-12-03T00:32:39.735Z,63.53
2022-12-03T00:33:39.725Z,64.46
2022-12-03T00:34:39.711Z,65.19
2022-12-03T00:35:39.701Z,64.56
2022-12-03T00:36:39.688Z,63.73
2022-12-03T00:37:39.681Z,64.98
2022-12-03T00:38:39.671Z,64.56
2022-12-03T00:39:39.661Z,65.29
2022-12-03T00:40:39.646Z,65.50
2022-12-03T00:41:39.637Z,64.87
2022-12-03T00:42:39.628Z,66.75
2022-12-03T00:43:39.614Z,67.06
2022-12-03T00:44:39.603Z,67.47
2022-12-03T00:45:39.594Z,69.13
2022-12-03T00:46:39.665Z,69.55
2022-12-03T00:47:39.598Z,68.41
2022-12-03T00:48:39.561Z,68.20
2022-12-03T00:49:39.550Z,68.51
2022-12-03T00:50:39.535Z,68.51
2022-12-03T00:51:39.528Z,69.55
2022-12-03T00:52:39.520Z,69.76
2022-12-03T00:53:39.506Z,68.82
2022-12-03T00:54:39.493Z,68.62
2022-12-03T00:55:39.483Z,68.51
2022-12-03T00:56:39.527Z,69.76
2022-12-03T00:57:39.470Z,70.38
2022-12-03T00:58:39.453Z,70.38
2022-12-03T00:59:39.446Z,70.69
2022-12-03T01:00:39.426Z,71.31
2022-12-03T01:01:39.485Z,72.45
2022-12-03T01:02:39.419Z,72.66
2022-12-03T01:03:39.422Z,72.35
2022-12-03T01:04:39.502Z,72.66
2022-12-03T01:05:39.376Z,74.22
2022-12-03T01:06:39.362Z,74.11
2022-12-03T01:07:39.508Z,75.71
2022-12-03T01:08:39.337Z,74.53
2022-12-03T01:09:39.328Z,75.19
2022-12-03T01:10:39.315Z,75.19
2022-12-03T01:11:39.305Z,76.02
2022-12-03T01:12:39.298Z,75.09
2022-12-03T01:13:39.294Z,75.92
2022-12-03T01:14:39.269Z,75.29
2022-12-03T01:15:39.305Z,75.29
2022-12-03T01:16:39.246Z,75.60
2022-12-03T01:17:39.241Z,74.26
2022-12-03T01:18:39.228Z,74.57
2022-12-03T01:19:44.895Z,76.43
2022-12-03T01:20:40.235Z,75.50
2022-12-03T01:21:39.194Z,76.33
2022-12-03T01:22:39.180Z,75.71
2022-12-03T01:23:39.171Z,75.71
2022-12-03T01:24:39.158Z,75.92
2022-12-03T01:25:39.151Z,76.85
2022-12-03T01:26:39.138Z,76.54
2022-12-03T01:27:39.124Z,74.67
2022-12-03T01:28:39.117Z,76.95
2022-12-03T01:29:39.102Z,77.06
2022-12-03T01:30:39.092Z,76.75
2022-12-03T01:31:39.192Z,76.12
2022-12-03T01:32:39.071Z,76.85
2022-12-03T01:33:39.061Z,77.58
2022-12-03T01:34:39.049Z,77.06
2022-12-03T01:35:39.066Z,78.20
2022-12-03T01:36:39.028Z,77.82
2022-12-03T01:37:39.012Z,76.95
2022-12-03T01:38:39.007Z,78.03
2022-12-03T01:39:38.996Z,78.20
2022-12-03T01:40:38.979Z,77.30
2022-12-03T01:41:38.973Z,77.37
2022-12-03T01:42:38.961Z,76.78
2022-12-03T01:43:38.949Z,77.72
2022-12-03T01:44:38.935Z,77.92
2022-12-03T01:45:38.931Z,77.82
2022-12-03T01:46:39.030Z,78.03
2022-12-03T01:47:38.901Z,77.30
2022-12-03T01:48:38.892Z,77.40
2022-12-03T01:49:38.876Z,77.51
2022-12-03T01:50:38.869Z,77.72
2022-12-03T01:51:38.902Z,78.13
2022-12-03T01:52:38.905Z,79.06
2022-12-03T01:53:38.932Z,78.13
2022-12-03T01:54:38.953Z,78.65
2022-12-03T01:55:38.951Z,76.99
2022-12-03T01:56:38.928Z,77.82
2022-12-03T01:57:38.933Z,76.89
2022-12-03T01:58:38.860Z,77.51
2022-12-03T01:59:38.774Z,76.57
2022-12-03T02:00:38.759Z,76.47
2022-12-03T02:01:38.796Z,75.12
2022-12-03T02:02:38.743Z,75.32
2022-12-03T02:03:38.777Z,74.80
2022-12-03T02:04:38.712Z,75.22
2022-12-03T02:05:38.701Z,76.16
2022-12-03T02:06:38.690Z,74.70
2022-12-03T02:07:38.766Z,76.78
2022-12-03T02:08:38.669Z,75.54
2022-12-03T02:09:38.655Z,77.61
2022-12-03T02:10:38.647Z,77.92
2022-12-03T02:11:38.629Z,77.72
2022-12-03T02:12:38.621Z,76.78
2022-12-03T02:13:38.610Z,78.34
2022-12-03T02:14:38.599Z,78.23
2022-12-03T02:15:38.588Z,79.27
2022-12-03T02:16:38.650Z,79.27
2022-12-03T02:17:38.568Z,79.27
2022-12-03T02:18:38.568Z,78.55
2022-12-03T02:19:38.542Z,79.48
2022-12-03T02:20:38.530Z,79.38
2022-12-03T02:21:38.522Z,79.90
2022-12-03T02:22:38.609Z,80.32
2022-12-03T02:23:38.519Z,80.42
2022-12-03T02:24:38.487Z,78.96
2022-12-03T02:25:38.472Z,78.44
2022-12-03T02:26:38.465Z,81.67
2022-12-03T02:27:38.701Z,80.94
2022-12-03T02:28:38.447Z,78.75
2022-12-03T02:29:38.431Z,79.90
2022-12-03T02:30:38.420Z,79.80
2022-12-03T02:31:38.503Z,79.69
2022-12-03T02:32:38.545Z,79.80
2022-12-03T02:33:38.434Z,79.90
2022-12-03T02:34:38.374Z,81.46
2022-12-03T02:35:38.365Z,80.56
2022-12-03T02:36:38.362Z,80.00
2022-12-03T02:37:38.590Z,81.04
2022-12-03T02:38:38.335Z,81.15
2022-12-03T02:39:38.344Z,81.46
2022-12-03T02:40:38.304Z,80.56
2022-12-03T02:41:38.294Z,80.73
2022-12-03T02:42:38.288Z,80.21
2022-12-03T02:43:38.269Z,80.52
2022-12-03T02:44:38.262Z,81.25
2022-12-03T02:45:38.250Z,79.90
2022-12-03T02:46:38.275Z,80.25
2022-12-03T02:47:38.225Z,78.96
2022-12-03T02:48:38.221Z,80.66
2022-12-03T02:49:38.209Z,79.62
2022-12-03T02:50:38.203Z,80.35
2022-12-03T02:51:38.178Z,79.38
2022-12-03T02:52:38.172Z,79.31
2022-12-03T02:53:38.157Z,79.41
2022-12-03T02:54:38.151Z,78.89
2022-12-03T02:55:38.162Z,79.94
2022-12-03T02:56:38.127Z,78.58
2022-12-03T02:57:38.116Z,77.96
2022-12-03T02:58:38.101Z,78.17
2022-12-03T02:59:38.092Z,78.69
2022-12-03T03:00:38.197Z,79.62
2022-12-03T03:01:38.218Z,78.17
2022-12-03T03:02:38.105Z,77.96
2022-12-03T03:03:38.050Z,77.75
2022-12-03T03:04:38.035Z,78.27
2022-12-03T03:05:38.025Z,79.00
2022-12-03T03:06:38.014Z,78.58
2022-12-03T03:07:38.038Z,78.89
2022-12-03T03:08:37.994Z,78.48
2022-12-03T03:09:37.987Z,79.41
2022-12-03T03:10:37.977Z,78.48
2022-12-03T03:11:37.979Z,79.41
2022-12-03T03:12:39.551Z,78.48
2022-12-03T03:13:37.931Z,80.25
2022-12-03T03:14:37.920Z,80.35
2022-12-03T03:15:37.911Z,79.31
2022-12-03T03:16:37.995Z,79.83
2022-12-03T03:17:37.889Z,79.94
2022-12-03T03:18:37.884Z,80.15
2022-12-03T03:19:37.864Z,80.35
2022-12-03T03:20:37.866Z,78.69
2022-12-03T03:21:37.846Z,79.31
2022-12-03T03:22:37.836Z,80.46
2022-12-03T03:23:37.821Z,79.83
2022-12-03T03:24:37.814Z,78.38
2022-12-03T03:25:37.798Z,78.89
2022-12-03T03:26:37.788Z,79.00
2022-12-03T03:27:37.800Z,79.55
2022-12-03T03:28:37.767Z,80.18
2022-12-03T03:29:37.750Z,79.55
2022-12-03T03:30:37.748Z,79.55
2022-12-03T03:31:37.779Z,79.76
2022-12-03T03:32:37.722Z,79.97
2022-12-03T03:33:37.708Z,80.60
2022-12-03T03:34:37.698Z,80.49
2022-12-03T03:35:37.685Z,78.62
2022-12-03T03:36:37.673Z,80.60
2022-12-03T03:37:37.664Z,80.29
2022-12-03T03:38:37.653Z,79.87
2022-12-03T03:39:37.649Z,79.24
2022-12-03T03:40:37.632Z,80.18
2022-12-03T03:41:37.618Z,78.62
2022-12-03T03:42:37.608Z,81.84
2022-12-03T03:43:37.630Z,80.60
2022-12-03T03:44:37.584Z,80.49
2022-12-03T03:45:37.614Z,80.70
2022-12-03T03:46:37.564Z,80.49
2022-12-03T03:47:37.552Z,79.87
2022-12-03T03:48:37.540Z,80.08
2022-12-03T03:49:37.528Z,80.49
2022-12-03T03:50:37.517Z,79.97
2022-12-03T03:51:37.503Z,79.97
2022-12-03T03:52:37.496Z,81.32
2022-12-03T03:53:37.481Z,79.66
2022-12-03T03:54:37.472Z,81.43
2022-12-03T03:55:37.457Z,81.22
2022-12-03T03:56:37.452Z,80.29
2022-12-03T03:57:37.444Z,78.72
2022-12-03T03:58:37.428Z,80.39
2022-12-03T03:59:37.439Z,80.39
2022-12-03T04:00:37.407Z,79.91
2022-12-03T04:01:37.495Z,80.94
2022-12-03T04:02:37.387Z,79.69
2022-12-03T04:03:37.500Z,81.15
2022-12-03T04:04:37.470Z,81.36
2022-12-03T04:05:37.352Z,81.15
2022-12-03T04:06:37.341Z,79.69
2022-12-03T04:07:37.378Z,81.15
2022-12-03T04:08:37.321Z,79.69
2022-12-03T04:09:37.309Z,80.01
2022-12-03T04:10:37.306Z,79.17
2022-12-03T04:11:37.280Z,79.28
2022-12-03T04:12:37.272Z,79.59
2022-12-03T04:13:37.257Z,80.74
2022-12-03T04:14:37.250Z,80.32
2022-12-03T04:15:37.257Z,79.69
2022-12-03T04:16:37.312Z,79.91
2022-12-03T04:17:37.213Z,80.84
2022-12-03T04:18:37.205Z,81.05
2022-12-03T04:19:37.190Z,80.63
2022-12-03T04:20:37.186Z,81.67
2022-12-03T04:21:37.182Z,81.98
2022-12-03T04:22:37.158Z,80.94
2022-12-03T04:23:37.145Z,80.84
2022-12-03T04:24:37.156Z,80.74
2022-12-03T04:25:37.127Z,80.63
2022-12-03T04:26:37.112Z,81.77
2022-12-03T04:27:37.102Z,81.88
2022-12-03T04:28:37.090Z,82.30
2022-12-03T04:29:37.080Z,83.23
2022-12-03T04:30:37.134Z,82.82
2022-12-03T04:31:37.081Z,82.40
2022-12-03T04:32:37.046Z,82.51
2022-12-03T04:33:37.033Z,83.03
2022-12-03T04:34:37.023Z,81.88
2022-12-03T04:35:37.124Z,81.05
2022-12-03T04:36:37.002Z,81.88
2022-12-03T04:37:36.989Z,80.53
2022-12-03T04:38:36.981Z,81.98
2022-12-03T04:39:36.965Z,81.88
2022-12-03T04:40:36.953Z,80.88
2022-12-03T04:41:36.946Z,81.77
2022-12-03T04:42:36.943Z,80.57
2022-12-03T04:43:36.923Z,82.54
2022-12-03T04:44:36.923Z,82.75
2022-12-03T04:45:36.956Z,82.03
2022-12-03T04:46:36.889Z,82.96
2022-12-03T04:47:40.038Z,84.11
2022-12-03T04:48:36.866Z,84.11
2022-12-03T04:49:36.856Z,82.23
2022-12-03T04:50:36.844Z,82.13
2022-12-03T04:51:36.831Z,82.34
2022-12-03T04:52:36.820Z,82.65
2022-12-03T04:53:39.633Z,84.73
2022-12-03T04:54:36.803Z,84.52
2022-12-03T04:55:36.789Z,83.90
2022-12-03T04:56:36.776Z,84.21
2022-12-03T04:57:36.764Z,85.04
2022-12-03T04:58:36.756Z,83.27
2022-12-03T04:59:36.745Z,83.80
2022-12-03T05:00:36.735Z,82.23
2022-12-03T05:01:36.821Z,82.23
2022-12-03T05:02:36.805Z,82.54
2022-12-03T05:03:36.724Z,81.60
2022-12-03T05:04:36.687Z,81.81
2022-12-03T05:05:36.677Z,83.06
2022-12-03T05:06:36.675Z,83.27
2022-12-03T05:07:36.738Z,82.13
2022-12-03T05:08:36.647Z,81.29
2022-12-03T05:09:36.632Z,82.89
2022-12-03T05:10:36.623Z,81.12
2022-12-03T05:11:36.609Z,81.02
2022-12-03T05:12:36.598Z,81.33
2022-12-03T05:13:36.588Z,79.66
2022-12-03T05:14:36.583Z,79.98
2022-12-03T05:15:36.564Z,79.98
2022-12-03T05:16:36.645Z,81.54
2022-12-03T05:17:36.543Z,81.43
2022-12-03T05:18:36.532Z,82.48
2022-12-03T05:19:36.543Z,82.10
2022-12-03T05:20:36.510Z,81.99
2022-12-03T05:21:36.497Z,81.26
2022-12-03T05:22:36.494Z,81.16
2022-12-03T05:23:36.477Z,79.60
2022-12-03T05:24:36.468Z,80.12
2022-12-03T05:25:36.452Z,79.60
2022-12-03T05:26:36.442Z,79.91
2022-12-03T05:27:36.433Z,79.08
2022-12-03T05:28:36.419Z,79.60
2022-12-03T05:29:36.410Z,79.80
2022-12-03T05:30:36.486Z,79.18
2022-12-03T05:31:36.387Z,78.77
2022-12-03T05:32:36.386Z,80.74
2022-12-03T05:33:40.907Z,78.87
2022-12-03T05:34:37.391Z,80.64
2022-12-03T05:35:36.365Z,78.97
2022-12-03T05:36:36.335Z,80.33
2022-12-03T05:37:36.320Z,79.91
2022-12-03T05:38:36.312Z,79.60
2022-12-03T05:39:36.300Z,80.36
2022-12-03T05:40:36.291Z,80.12
2022-12-03T05:41:36.274Z,79.60
2022-12-03T05:42:36.564Z,78.97
2022-12-03T05:43:36.257Z,78.97
2022-12-03T05:44:36.239Z,78.56
2022-12-03T05:45:36.231Z,81.20
2022-12-03T05:46:36.342Z,80.02
2022-12-03T05:47:36.214Z,79.74
2022-12-03T05:48:36.197Z,79.94
2022-12-03T05:49:36.187Z,80.47
2022-12-03T05:50:36.179Z,80.54
2022-12-03T05:51:36.195Z,80.47
2022-12-03T05:52:36.154Z,80.05
2022-12-03T05:53:36.146Z,80.54
2022-12-03T05:54:36.131Z,79.74
2022-12-03T05:55:36.121Z,80.57
2022-12-03T05:56:36.110Z,81.09
2022-12-03T05:57:36.101Z,80.78
2022-12-03T05:58:36.090Z,80.05
2022-12-03T05:59:36.076Z,79.63
2022-12-03T06:00:41.820Z,79.32
2022-12-03T06:01:37.079Z,77.66
2022-12-03T06:02:36.194Z,77.45
2022-12-03T06:03:36.302Z,78.07
2022-12-03T06:04:36.021Z,77.45
2022-12-03T06:05:36.010Z,79.74
2022-12-03T06:06:36.000Z,79.11
2022-12-03T06:07:36.059Z,78.80
2022-12-03T06:08:35.976Z,77.86
2022-12-03T06:09:35.972Z,78.59
2022-12-03T06:10:35.960Z,77.23
2022-12-03T06:11:35.946Z,77.76
2022-12-03T06:12:35.935Z,76.92
2022-12-03T06:13:35.923Z,76.54
2022-12-03T06:14:35.914Z,77.37
2022-12-03T06:15:41.967Z,76.86
2022-12-03T06:16:37.026Z,76.65
2022-12-03T06:17:35.887Z,75.29
2022-12-03T06:18:35.867Z,76.75
2022-12-03T06:19:35.860Z,76.33
2022-12-03T06:20:35.842Z,76.75
2022-12-03T06:21:35.839Z,76.54
2022-12-03T06:22:35.820Z,75.60
2022-12-03T06:23:35.853Z,76.33
2022-12-03T06:24:35.798Z,77.69
2022-12-03T06:25:35.792Z,76.02
2022-12-03T06:26:35.777Z,77.69
2022-12-03T06:27:35.768Z,76.96
2022-12-03T06:28:35.758Z,76.65
2022-12-03T06:29:35.749Z,77.06
2022-12-03T06:30:35.734Z,76.43
2022-12-03T06:31:35.803Z,75.60
2022-12-03T06:32:35.715Z,77.58
2022-12-03T06:33:35.706Z,77.27
2022-12-03T06:34:35.690Z,77.48
2022-12-03T06:35:35.678Z,76.43
2022-12-03T06:36:35.668Z,75.92
2022-12-03T06:37:35.667Z,75.71
2022-12-03T06:38:35.644Z,75.40
2022-12-03T06:39:35.751Z,77.48
2022-12-03T06:40:35.623Z,77.69
2022-12-03T06:41:35.616Z,77.27
2022-12-03T06:42:35.624Z,77.90
2022-12-03T06:43:35.601Z,76.86
2022-12-03T06:44:35.579Z,77.80
2022-12-03T06:45:35.569Z,77.90
2022-12-03T06:46:35.671Z,78.00
2022-12-03T06:47:35.552Z,78.94
2022-12-03T06:48:35.532Z,78.00
2022-12-03T06:49:35.531Z,77.58
2022-12-03T06:50:35.517Z,77.27
2022-12-03T06:51:35.504Z,77.06
2022-12-03T06:52:35.494Z,77.06
2022-12-03T06:53:35.481Z,78.73
2022-12-03T06:54:35.467Z,78.31
2022-12-03T06:55:35.483Z,76.02
2022-12-03T06:56:40.404Z,77.10
2022-12-03T06:57:36.470Z,77.83
2022-12-03T06:58:35.426Z,78.56
2022-12-03T06:59:35.421Z,78.77
2022-12-03T07:00:35.407Z,78.04
2022-12-03T07:01:35.479Z,78.87
2022-12-03T07:02:35.472Z,77.41
2022-12-03T07:03:35.373Z,77.51
2022-12-03T07:04:35.359Z,79.39
2022-12-03T07:05:35.352Z,80.13
2022-12-03T07:06:35.340Z,79.71
2022-12-03T07:07:35.377Z,79.19
2022-12-03T07:08:35.320Z,81.27
2022-12-03T07:09:35.303Z,79.81
2022-12-03T07:10:35.292Z,79.50
2022-12-03T07:11:35.308Z,78.87
2022-12-03T07:12:35.272Z,79.50
2022-12-03T07:13:35.263Z,78.45
2022-12-03T07:14:35.254Z,80.02
2022-12-03T07:15:35.237Z,79.91
2022-12-03T07:16:35.269Z,80.23
2022-12-03T07:17:35.213Z,81.06
2022-12-03T07:18:35.201Z,81.48
2022-12-03T07:19:35.191Z,80.85
2022-12-03T07:20:35.178Z,80.44
2022-12-03T07:21:35.174Z,78.87
2022-12-03T07:22:35.158Z,81.27
2022-12-03T07:23:35.150Z,81.16
2022-12-03T07:24:35.135Z,81.27
2022-12-03T07:25:35.128Z,79.91
2022-12-03T07:26:35.115Z,79.81
2022-12-03T07:27:35.127Z,78.56
2022-12-03T07:28:35.177Z,78.77
2022-12-03T07:29:35.084Z,81.27
2022-12-03T07:30:35.069Z,80.02
2022-12-03T07:31:35.165Z,78.56
2022-12-03T07:32:35.051Z,80.85
2022-12-03T07:33:35.040Z,80.85
2022-12-03T07:34:35.023Z,80.13
2022-12-03T07:35:35.069Z,79.71
2022-12-03T07:36:35.004Z,81.48
2022-12-03T07:37:34.995Z,80.13
2022-12-03T07:38:34.981Z,80.33
2022-12-03T07:39:34.969Z,80.65
2022-12-03T07:40:34.959Z,79.60
2022-12-03T07:41:34.977Z,79.08
2022-12-03T07:42:34.939Z,79.71
2022-12-03T07:43:34.949Z,79.19
2022-12-03T07:44:34.912Z,79.71
2022-12-03T07:45:34.903Z,78.97
2022-12-03T07:46:34.951Z,78.35
2022-12-03T07:47:34.882Z,77.94
2022-12-03T07:48:34.873Z,80.27
2022-12-03T07:49:34.858Z,80.02
2022-12-03T07:50:34.845Z,80.05
2022-12-03T07:51:34.835Z,79.01
2022-12-03T07:52:34.822Z,78.70
2022-12-03T07:53:34.813Z,78.91
2022-12-03T07:54:34.799Z,79.43
2022-12-03T07:55:34.790Z,79.01
2022-12-03T07:56:34.778Z,77.31
2022-12-03T07:57:34.771Z,79.29
2022-12-03T07:58:34.757Z,79.39
2022-12-03T07:59:34.769Z,79.71
2022-12-03T08:00:35.717Z,80.54
2022-12-03T08:01:34.988Z,78.87
2022-12-03T08:02:34.848Z,80.85
2022-12-03T08:03:34.704Z,80.65
2022-12-03T08:04:34.691Z,81.06
2022-12-03T08:05:34.682Z,80.02
2022-12-03T08:06:34.760Z,81.06
2022-12-03T08:07:34.736Z,80.65
2022-12-03T08:08:34.646Z,80.65
2022-12-03T08:09:34.635Z,81.90
2022-12-03T08:10:34.624Z,81.59
2022-12-03T08:11:34.619Z,83.67
2022-12-03T08:12:34.604Z,83.47
2022-12-03T08:13:34.598Z,84.19
2022-12-03T08:14:34.587Z,83.98
2022-12-03T08:15:39.305Z,83.88
2022-12-03T08:16:34.650Z,83.98
2022-12-03T08:17:34.548Z,84.19
2022-12-03T08:18:34.583Z,84.09
2022-12-03T08:19:34.532Z,85.55
2022-12-03T08:20:34.518Z,85.86
2022-12-03T08:21:34.507Z,85.03
2022-12-03T08:22:34.498Z,84.40
2022-12-03T08:23:34.683Z,84.05
2022-12-03T08:24:34.470Z,84.47
2022-12-03T08:25:34.469Z,86.03
2022-12-03T08:26:34.451Z,86.24
2022-12-03T08:27:34.440Z,85.30
2022-12-03T08:28:34.439Z,85.51
2022-12-03T08:29:34.440Z,86.45
2022-12-03T08:30:34.409Z,85.93
2022-12-03T08:31:34.475Z,83.95
2022-12-03T08:32:34.383Z,84.78
2022-12-03T08:33:34.373Z,84.88
2022-12-03T08:34:34.361Z,84.78
2022-12-03T08:35:34.351Z,85.41
2022-12-03T08:36:34.354Z,84.16
2022-12-03T08:37:34.329Z,83.01
2022-12-03T08:38:34.313Z,83.74
2022-12-03T08:39:34.304Z,81.55
2022-12-03T08:40:34.318Z,82.17
2022-12-03T08:41:34.293Z,82.03
2022-12-03T08:42:34.269Z,84.67
2022-12-03T08:43:34.261Z,82.14
2022-12-03T08:44:34.248Z,83.59
2022-12-03T08:45:34.250Z,83.91
2022-12-03T08:46:34.227Z,85.16
2022-12-03T08:47:34.240Z,87.24
2022-12-03T08:48:34.217Z,87.04
2022-12-03T08:49:34.196Z,87.39
2022-12-03T08:50:34.181Z,85.89
2022-12-03T08:51:34.170Z,86.03
2022-12-03T08:52:34.166Z,85.41
2022-12-03T08:53:34.163Z,85.05
2022-12-03T08:54:34.171Z,86.30
2022-12-03T08:55:34.127Z,87.14
2022-12-03T08:56:34.118Z,87.24
2022-12-03T08:57:34.107Z,89.85
2022-12-03T08:58:34.091Z,87.45
2022-12-03T08:59:34.085Z,87.76
2022-12-03T09:00:34.073Z,87.55
2022-12-03T09:01:34.123Z,88.39
2022-12-03T09:02:34.047Z,88.39
2022-12-03T09:03:34.059Z,88.81
2022-12-03T09:04:34.100Z,88.18
2022-12-03T09:05:34.057Z,87.24
2022-12-03T09:06:34.084Z,87.35
2022-12-03T09:07:34.081Z,85.43
2022-12-03T09:08:33.979Z,88.70
2022-12-03T09:09:33.971Z,89.75
2022-12-03T09:10:33.957Z,89.75
2022-12-03T09:11:33.948Z,88.35
2022-12-03T09:12:33.934Z,90.01
2022-12-03T09:13:33.925Z,91.27
2022-12-03T09:14:33.915Z,88.35
2022-12-03T09:15:33.900Z,90.75
2022-12-03T09:16:33.961Z,89.39
2022-12-03T09:17:33.891Z,92.21
2022-12-03T09:18:33.878Z,90.85
2022-12-03T09:19:33.882Z,92.00
2022-12-03T09:20:33.845Z,90.75
2022-12-03T09:21:33.836Z,91.06
2022-12-03T09:22:33.821Z,89.91
2022-12-03T09:23:33.812Z,89.35
2022-12-03T09:24:33.798Z,88.73
2022-12-03T09:25:33.792Z,89.87
2022-12-03T09:26:33.779Z,89.98
2022-12-03T09:27:33.772Z,90.19
2022-12-03T09:28:33.756Z,89.76
2022-12-03T09:29:33.779Z,92.99
2022-12-03T09:30:33.754Z,91.96
2022-12-03T09:31:33.806Z,91.85
2022-12-03T09:32:33.790Z,93.20
2022-12-03T09:33:33.738Z,91.68
2022-12-03T09:34:33.698Z,91.64
2022-12-03T09:35:33.734Z,92.79
2022-12-03T09:36:33.703Z,93.31
2022-12-03T09:37:33.722Z,92.37
2022-12-03T09:38:33.673Z,93.10
2022-12-03T09:39:33.646Z,93.48
2022-12-03T09:40:33.626Z,95.97
2022-12-03T09:41:33.644Z,94.72
2022-12-03T09:42:33.613Z,95.14
2022-12-03T09:44:02.779Z,96.49
2022-12-03T09:44:33.584Z,96.49
2022-12-03T09:45:33.591Z,95.25
2022-12-03T09:46:33.717Z,96.14
2022-12-03T09:47:33.552Z,95.66
2022-12-03T09:48:33.541Z,95.87
2022-12-03T09:49:33.568Z,94.31
2022-12-03T09:50:33.520Z,95.14
2022-12-03T09:51:33.533Z,95.08
2022-12-03T09:52:33.518Z,95.18
2022-12-03T09:53:38.090Z,94.66
2022-12-03T09:54:34.511Z,93.62
2022-12-03T09:55:33.469Z,92.27
2022-12-03T09:56:33.450Z,93.10
2022-12-03T09:57:33.444Z,92.89
2022-12-03T09:58:35.056Z,92.99
2022-12-03T09:59:33.492Z,92.68
2022-12-03T10:00:33.408Z,92.21
2022-12-03T10:01:33.456Z,91.89
2022-12-03T10:02:33.389Z,92.72
2022-12-03T10:03:33.372Z,90.95
2022-12-03T10:04:33.451Z,92.00
2022-12-03T10:05:33.401Z,89.54
2022-12-03T10:06:33.343Z,90.37
2022-12-03T10:07:33.424Z,90.47
2022-12-03T10:08:33.323Z,90.16
2022-12-03T10:09:33.307Z,89.64
2022-12-03T10:10:33.297Z,90.47
2022-12-03T10:11:33.313Z,90.58
2022-12-03T10:12:33.273Z,89.64
2022-12-03T10:13:33.261Z,89.95
2022-12-03T10:14:33.253Z,89.12
2022-12-03T10:15:33.242Z,89.95
2022-12-03T10:16:33.303Z,89.32
2022-12-03T10:17:33.240Z,90.68
2022-12-03T10:18:38.248Z,89.43
2022-12-03T10:19:34.220Z,89.95
2022-12-03T10:20:33.187Z,88.81
2022-12-03T10:21:33.173Z,89.18
2022-12-03T10:22:33.162Z,90.01
2022-12-03T10:23:33.171Z,88.56
2022-12-03T10:24:33.138Z,89.60
2022-12-03T10:25:33.127Z,90.64
2022-12-03T10:26:33.119Z,92.31
2022-12-03T10:27:33.101Z,90.44
2022-12-03T10:28:33.096Z,91.27
2022-12-03T10:29:34.273Z,90.95
2022-12-03T10:30:33.227Z,90.12
2022-12-03T10:31:33.122Z,89.87
2022-12-03T10:32:33.051Z,91.33
2022-12-03T10:33:33.042Z,92.16
2022-12-03T10:34:33.028Z,91.58
2022-12-03T10:35:33.014Z,92.37
2022-12-03T10:36:33.005Z,91.85
2022-12-03T10:37:32.994Z,92.47
2022-12-03T10:38:32.981Z,92.58
2022-12-03T10:39:33.002Z,92.43
2022-12-03T10:40:32.986Z,92.12
2022-12-03T10:41:32.946Z,93.05
2022-12-03T10:42:32.939Z,93.68
2022-12-03T10:43:32.925Z,93.37
2022-12-03T10:44:32.913Z,93.99
2022-12-03T10:45:32.904Z,91.75
2022-12-03T10:46:32.986Z,91.96
2022-12-03T10:47:33.068Z,91.85
2022-12-03T10:48:32.886Z,91.91
2022-12-03T10:49:32.861Z,93.99
2022-12-03T10:50:32.852Z,93.89
2022-12-03T10:51:32.838Z,92.99
2022-12-03T10:52:32.838Z,92.68
2022-12-03T10:53:32.818Z,92.68
2022-12-03T10:54:32.804Z,91.43
2022-12-03T10:55:32.818Z,94.35
2022-12-03T10:56:32.785Z,90.70
2022-12-03T10:57:32.774Z,92.43
2022-12-03T10:58:32.764Z,92.79
2022-12-03T10:59:32.751Z,91.75
2022-12-03T11:00:32.755Z,92.12
2022-12-03T11:01:32.787Z,92.22
2022-12-03T11:02:32.718Z,91.81
2022-12-03T11:03:32.814Z,92.85
2022-12-03T11:04:32.697Z,92.02
2022-12-03T11:05:32.697Z,93.48
2022-12-03T11:06:32.673Z,93.05
2022-12-03T11:07:32.699Z,90.77
2022-12-03T11:08:32.653Z,91.81
2022-12-03T11:09:32.641Z,92.95
2022-12-03T11:10:32.650Z,92.39
2022-12-03T11:11:32.639Z,95.40
2022-12-03T11:12:32.612Z,91.87
2022-12-03T11:13:32.601Z,93.95
2022-12-03T11:14:32.590Z,92.80
2022-12-03T11:15:32.615Z,93.64
2022-12-03T11:16:32.653Z,94.06
2022-12-03T11:17:32.555Z,95.62
2022-12-03T11:18:32.550Z,94.68
2022-12-03T11:19:32.545Z,94.68
2022-12-03T11:20:32.564Z,93.91
2022-12-03T11:21:32.520Z,94.37
2022-12-03T11:22:32.859Z,92.91
2022-12-03T11:23:32.488Z,95.47
2022-12-03T11:24:32.482Z,95.36
2022-12-03T11:25:32.820Z,93.64
2022-12-03T11:26:32.458Z,93.33
2022-12-03T11:27:32.474Z,95.36
2022-12-03T11:28:32.437Z,94.37
2022-12-03T11:29:32.422Z,93.33
2022-12-03T11:30:32.443Z,92.91
2022-12-03T11:31:32.798Z,93.12
2022-12-03T11:32:32.413Z,92.60
2022-12-03T11:33:32.378Z,94.47
2022-12-03T11:34:32.372Z,94.06
2022-12-03T11:35:32.357Z,93.12
2022-12-03T11:37:00.316Z,94.16
2022-12-03T11:37:33.380Z,91.77
2022-12-03T11:38:32.325Z,95.83
2022-12-03T11:39:32.314Z,94.22
2022-12-03T11:40:37.748Z,94.06
2022-12-03T11:41:32.318Z,93.74
2022-12-03T11:42:32.297Z,93.43
2022-12-03T11:43:32.294Z,93.64
2022-12-03T11:44:32.265Z,93.23
2022-12-03T11:45:32.261Z,91.77
2022-12-03T11:46:32.308Z,92.49
2022-12-03T11:47:32.230Z,93.12
2022-12-03T11:48:32.236Z,92.66
2022-12-03T11:49:32.212Z,93.18
2022-12-03T11:50:38.997Z,93.12
2022-12-03T11:51:33.222Z,91.25
2022-12-03T11:52:32.207Z,91.97
2022-12-03T11:53:32.174Z,91.04
2022-12-03T11:54:32.159Z,92.91
2022-12-03T11:55:32.392Z,94.06
2022-12-03T11:56:32.136Z,92.45
2022-12-03T11:57:32.123Z,91.56
2022-12-03T11:58:32.111Z,93.85
2022-12-03T11:59:32.122Z,91.66
2022-12-03T12:00:32.091Z,93.54
2022-12-03T12:01:38.125Z,91.39
2022-12-03T12:02:32.142Z,90.87
2022-12-03T12:03:33.451Z,91.71
2022-12-03T12:04:32.129Z,91.81
2022-12-03T12:05:32.033Z,90.25
2022-12-03T12:06:32.029Z,88.64
2022-12-03T12:07:32.095Z,90.66
2022-12-03T12:08:32.003Z,91.04
2022-12-03T12:09:31.989Z,90.52
2022-12-03T12:10:31.984Z,91.46
2022-12-03T12:11:31.969Z,89.79
2022-12-03T12:12:31.961Z,90.93
2022-12-03T12:13:31.982Z,89.37
2022-12-03T12:14:31.954Z,90.00
2022-12-03T12:15:32.216Z,89.69
2022-12-03T12:16:31.999Z,89.79
2022-12-03T12:17:32.176Z,90.52
2022-12-03T12:18:31.896Z,90.41
2022-12-03T12:19:31.885Z,89.48
2022-12-03T12:20:31.890Z,87.81
2022-12-03T12:21:31.861Z,90.00
2022-12-03T12:22:31.856Z,90.20
2022-12-03T12:23:31.864Z,89.58
2022-12-03T12:24:31.859Z,89.27
2022-12-03T12:25:31.817Z,89.41
2022-12-03T12:26:31.812Z,90.35
2022-12-03T12:27:31.895Z,89.06
2022-12-03T12:28:31.788Z,89.37
2022-12-03T12:29:31.781Z,89.17
2022-12-03T12:30:31.763Z,89.62
2022-12-03T12:31:31.886Z,89.52
2022-12-03T12:32:31.745Z,88.64
2022-12-03T12:33:31.727Z,89.69
2022-12-03T12:34:31.715Z,89.79
2022-12-03T12:35:31.707Z,88.54
2022-12-03T12:36:31.695Z,89.27
2022-12-03T12:37:31.684Z,89.37
2022-12-03T12:38:31.670Z,89.48
2022-12-03T12:39:31.666Z,88.85
2022-12-03T12:40:31.655Z,87.40
2022-12-03T12:41:31.638Z,85.83
2022-12-03T12:42:31.630Z,89.06
2022-12-03T12:43:31.615Z,88.64
2022-12-03T12:44:31.603Z,88.43
2022-12-03T12:45:31.595Z,87.92
2022-12-03T12:46:48.482Z,86.57
2022-12-03T12:47:32.714Z,87.29
2022-12-03T12:48:31.559Z,87.19
2022-12-03T12:49:31.547Z,86.88
2022-12-03T12:50:31.739Z,85.73
2022-12-03T12:51:31.525Z,86.67
2022-12-03T12:52:31.514Z,89.79